Eldorado, WI (54932)

7:19 AM CDT on September 28, 2016 (GMT -0500)
Town of Rosendale | | Change Station

Elev 906 ft 43.82 °N, 88.71 °W | Updated 13 seconds ago

Overcast
Overcast
49.2 °F
Feels Like 49 °F
N
1.0
Wind Variable Wind from WNW

Today
High -- | Low -- °F
--% Chance of Precip.
Yesterday
High -- | Low -- °F
Precip. -- in
Pressure 29.87 in
Visibility 10.0 miles
Clouds Mostly Cloudy 2400 ft
Overcast 3500 ft
Windchill 49 °F
Dew Point 46 °F
Humidity 88%
Rainfall 0.00 in
Snow Depth Not available.
6:49 AM 6:40 PM
Waning Crescent, 6% visible
METAR KFLD 281153Z AUTO 32008KT 10SM BKN024 OVC035 11/09 A2986 RMK AO2 SLP113 60000 70012 T01060094 10106 20094 53020
Pressure 29.87 in
Visibility 10.0 miles
Clouds Mostly Cloudy 2400 ft
Overcast 3500 ft
Windchill 49 °F
Dew Point 46 °F
Humidity 88%
Rainfall 0.00 in
Snow Depth Not available.
6:49 AM 6:40 PM
Waning Crescent, 6% visible
METAR KFLD 281153Z AUTO 32008KT 10SM BKN024 OVC035 11/09 A2986 RMK AO2 SLP113 60000 70012 T01060094 10106 20094 53020

10-Day Weather Forecast

Almanac

Astronomy

Sep. 28, 2016 Rise Set
Actual Time
Civil Twilight
Nautical Twilight
Astronomical Twilight
Moon
Length of Visible Light
Length of Day
Tomorrow will be .
, % of the Moon is Illuminated

Today's Extremes

State Highs State Lows

Community

WunderPhotos

Upload Photos

1,942,236 photos uploaded!

WunderBlog® & News

Nearby

Air Quality

  Air Quality AQ Index Pollutant
Not available.

Snow Depth

Station Depth Elevation

Earthquake Activity

City Distance Mag. Time & Date
Minimum magnitude displayed is 2.5.

Coastal Water Temperatures

Place Temperature

Stations

Nearby Weather Stations

Station Location Temp. Windchill Dew Point Humidity Wind Precip. Elev Updated Type
                   

Watches & Warnings

There are currently no watches in effect.